Time;durP1;ratioP1;P1;durP2;ratioP2;P2;SDS_P1;SDS_P2;PMS_P1;PMS_P2;Temp;Humidity;BMP_temperature;BMP_pressure;BME280_temperature;BME280_humidity;BME280_pressure;Samples;Min_cycle;Max_cycle;Signal;HPM_P1;HPM_P2
2023/02/18 00:01:01;;;;;;;;;;;;;;;9.81;100.00;102165.25;5044005;28;19935;-68
2023/02/18 00:03:28;;;;;;;;;;;;;;;9.83;100.00;102151.09;5032053;28;19924;-68
2023/02/18 00:05:54;;;;;;;;;;;;;;;9.77;100.00;102146.28;5021583;28;20632;-68
2023/02/18 00:08:21;;;;;;;;;;;;;;;9.81;100.00;102137.25;5036157;28;20281;-68
2023/02/18 00:10:47;;;;;;;;;;;;;;;9.83;100.00;102145.84;5018061;28;19925;-68
2023/02/18 00:13:14;;;;;;;;;;;;;;;9.86;100.00;102136.94;5029336;28;20378;-67
2023/02/18 00:15:40;;;;;;;;;;;;;;;9.83;100.00;102138.00;5027225;28;19924;-68
2023/02/18 00:18:06;;;;;;;;;;;;;;;9.83;100.00;102132.75;5029945;28;19968;-68
2023/02/18 00:20:35;;;;;;;;;;;;;;;9.79;100.00;102131.28;5025587;28;19924;-68
2023/02/18 00:23:01;;;;;;;;;;;;;;;9.78;100.00;102134.88;5017031;28;20378;-68
2023/02/18 00:25:28;;;;;;;;;;;;;;;9.80;100.00;102137.38;5015606;28;19929;-68
2023/02/18 00:27:54;;;;;;;;;;;;;;;9.83;100.00;102135.38;5018845;28;19925;-67
2023/02/18 00:30:20;;;;;;;;;;;;;;;9.82;100.00;102132.84;5033398;28;19924;-66
2023/02/18 00:32:47;;;;;;;;;;;;;;;9.84;100.00;102128.34;5031657;28;19936;-67
2023/02/18 00:35:13;;;;;;;;;;;;;;;9.82;100.00;102131.09;5031626;28;19929;-66
2023/02/18 00:37:39;;;;;;;;;;;;;;;9.80;100.00;102134.75;5046080;28;20365;-66
2023/02/18 00:40:06;;;;;;;;;;;;;;;9.79;100.00;102133.91;5023840;28;19924;-66
2023/02/18 00:42:32;;;;;;;;;;;;;;;9.83;100.00;102118.81;5037975;28;19924;-66
2023/02/18 00:44:59;;;;;;;;;;;;;;;9.84;100.00;102123.94;5019723;28;19920;-66
2023/02/18 00:47:25;;;;;;;;;;;;;;;9.86;100.00;102114.19;5044208;28;19925;-66
2023/02/18 00:49:51;;;;;;;;;;;;;;;9.85;100.00;102109.88;5034553;28;19920;-67
2023/02/18 00:52:18;;;;;;;;;;;;;;;9.87;100.00;102105.38;5037592;28;20393;-67
2023/02/18 00:54:44;;;;;;;;;;;;;;;9.89;100.00;102094.78;5034622;28;20677;-66
2023/02/18 00:57:10;;;;;;;;;;;;;;;9.96;100.00;102092.53;5031255;28;19929;-66
2023/02/18 00:59:36;;;;;;;;;;;;;;;9.96;100.00;102095.16;5032935;28;19925;-67
2023/02/18 01:02:03;;;;;;;;;;;;;;;10.00;100.00;102088.78;5027941;28;19924;-66
2023/02/18 01:04:29;;;;;;;;;;;;;;;10.02;100.00;102092.13;5041152;28;20230;-68
2023/02/18 01:06:55;;;;;;;;;;;;;;;10.01;100.00;102099.13;5032316;28;20015;-68
2023/02/18 01:09:24;;;;;;;;;;;;;;;10.00;100.00;102094.84;5043018;28;20336;-66
2023/02/18 01:11:51;;;;;;;;;;;;;;;10.00;100.00;102089.59;5041620;28;19955;-68
2023/02/18 01:14:17;;;;;;;;;;;;;;;10.03;100.00;102084.13;5025888;28;20031;-67
2023/02/18 01:16:43;;;;;;;;;;;;;;;10.04;100.00;102087.59;5041007;28;20458;-66
2023/02/18 01:19:10;;;;;;;;;;;;;;;10.01;100.00;102090.44;5022052;28;19925;-66
2023/02/18 01:21:36;;;;;;;;;;;;;;;10.07;100.00;102093.47;5040753;28;19929;-67
2023/02/18 01:24:03;;;;;;;;;;;;;;;10.14;100.00;102082.53;5030246;28;19925;-68
2023/02/18 01:26:29;;;;;;;;;;;;;;;10.15;100.00;102084.19;5037144;28;19928;-68
2023/02/18 01:28:55;;;;;;;;;;;;;;;10.12;100.00;102085.25;5028872;28;19932;-68
2023/02/18 01:31:22;;;;;;;;;;;;;;;10.15;100.00;102085.00;5027629;28;19921;-68
2023/02/18 01:33:48;;;;;;;;;;;;;;;10.16;100.00;102089.31;5023108;28;20128;-68
2023/02/18 01:36:15;;;;;;;;;;;;;;;10.11;100.00;102075.69;5025902;28;19925;-68
2023/02/18 01:38:42;;;;;;;;;;;;;;;10.14;100.00;102079.91;5030136;28;20373;-68
2023/02/18 01:41:09;;;;;;;;;;;;;;;10.15;100.00;102071.91;5038091;28;19925;-68
2023/02/18 01:43:35;;;;;;;;;;;;;;;10.16;100.00;102072.75;5034666;28;19925;-68
2023/02/18 01:46:02;;;;;;;;;;;;;;;10.17;100.00;102066.56;5026801;28;19935;-68
2023/02/18 01:48:40;;;;;;;;;;;;;;;10.16;100.00;102067.50;5016707;28;19925;-67
2023/02/18 01:51:15;;;;;;;;;;;;;;;10.21;100.00;102065.38;5029247;28;20428;-68
2023/02/18 01:53:48;;;;;;;;;;;;;;;10.12;100.00;102064.28;5031520;28;19924;-68
2023/02/18 01:56:18;;;;;;;;;;;;;;;10.13;100.00;102050.19;5038318;28;20077;-68
2023/02/18 01:58:45;;;;;;;;;;;;;;;10.09;100.00;102059.25;5028085;28;19925;-68
2023/02/18 02:01:11;;;;;;;;;;;;;;;10.04;100.00;102056.97;5034930;28;19924;-64
2023/02/18 02:03:37;;;;;;;;;;;;;;;10.11;100.00;102057.34;5028264;28;19929;-65
2023/02/18 02:06:08;;;;;;;;;;;;;;;10.07;100.00;102045.41;5034344;28;19987;-64
2023/02/18 02:08:35;;;;;;;;;;;;;;;10.13;100.00;102039.72;5032675;28;20377;-65
2023/02/18 02:11:06;;;;;;;;;;;;;;;10.10;100.00;102043.41;5032558;28;19928;-65
2023/02/18 02:13:51;;;;;;;;;;;;;;;10.07;100.00;102032.31;5034753;28;19928;-65
2023/02/18 02:16:25;;;;;;;;;;;;;;;10.08;100.00;102026.97;5030658;28;19928;-65
2023/02/18 02:19:03;;;;;;;;;;;;;;;10.11;100.00;102031.13;5037791;28;19921;-66
2023/02/18 02:21:41;;;;;;;;;;;;;;;10.09;100.00;102027.78;5040357;28;20020;-64
2023/02/18 02:24:16;;;;;;;;;;;;;;;10.12;100.00;102011.84;5036187;28;19970;-65
2023/02/18 02:26:51;;;;;;;;;;;;;;;10.10;100.00;102008.50;5031003;28;19925;-65
2023/02/18 02:29:36;;;;;;;;;;;;;;;10.13;100.00;102005.63;5039668;28;19928;-65
2023/02/18 02:32:21;;;;;;;;;;;;;;;10.10;100.00;101996.22;5034667;28;19925;-64
2023/02/18 02:34:54;;;;;;;;;;;;;;;10.13;100.00;101991.69;5028621;28;19929;-64
2023/02/18 02:37:24;;;;;;;;;;;;;;;10.13;100.00;101973.34;5035673;28;20400;-64
2023/02/18 02:39:50;;;;;;;;;;;;;;;10.16;100.00;101975.75;5030039;28;19924;-65
2023/02/18 02:42:16;;;;;;;;;;;;;;;10.16;100.00;101978.38;5041221;28;19970;-66
2023/02/18 02:44:49;;;;;;;;;;;;;;;10.18;100.00;101971.22;5000422;28;19928;-65
2023/02/18 02:47:21;;;;;;;;;;;;;;;10.21;100.00;101969.22;5031850;28;19928;-65
2023/02/18 02:50:00;;;;;;;;;;;;;;;10.23;100.00;101958.59;5025410;28;19928;-65
2023/02/18 02:52:30;;;;;;;;;;;;;;;10.16;100.00;101962.63;5027015;28;19925;-66
2023/02/18 02:54:56;;;;;;;;;;;;;;;10.17;100.00;101940.69;5034205;28;19947;-66
2023/02/18 02:57:22;;;;;;;;;;;;;;;10.19;100.00;101926.53;5040001;28;19928;-65
2023/02/18 02:59:51;;;;;;;;;;;;;;;10.23;100.00;101924.50;5038344;28;19925;-66
2023/02/18 03:02:17;;;;;;;;;;;;;;;10.24;100.00;101923.56;5027954;28;19933;-65
2023/02/18 03:04:44;;;;;;;;;;;;;;;10.26;100.00;101922.47;5037942;28;19932;-65
2023/02/18 03:07:18;;;;;;;;;;;;;;;10.27;100.00;101915.44;5028623;28;19924;-65
2023/02/18 03:09:58;;;;;;;;;;;;;;;10.25;100.00;101906.84;5029247;28;19932;-67
2023/02/18 03:12:27;;;;;;;;;;;;;;;10.26;100.00;101900.66;5031261;28;20373;-66
2023/02/18 03:15:03;;;;;;;;;;;;;;;10.27;100.00;101904.94;5037035;28;20328;-66
2023/02/18 03:17:32;;;;;;;;;;;;;;;10.23;100.00;101896.50;5029520;28;20378;-65
2023/02/18 03:20:05;;;;;;;;;;;;;;;10.23;100.00;101888.63;5032073;28;19934;-65
2023/02/18 03:22:36;;;;;;;;;;;;;;;10.26;100.00;101893.63;5027671;28;19921;-65
2023/02/18 03:25:03;;;;;;;;;;;;;;;10.28;100.00;101880.41;5025416;28;19932;-66
2023/02/18 03:27:32;;;;;;;;;;;;;;;10.28;100.00;101880.41;5028604;28;19928;-65
2023/02/18 03:30:03;;;;;;;;;;;;;;;10.28;100.00;101883.03;5029049;28;19925;-65
2023/02/18 03:32:31;;;;;;;;;;;;;;;10.32;100.00;101874.00;5039753;28;19935;-65
2023/02/18 03:35:01;;;;;;;;;;;;;;;10.28;100.00;101867.28;5036305;28;20336;-67
2023/02/18 03:37:28;;;;;;;;;;;;;;;10.32;100.00;101879.25;5027794;28;19921;-65
2023/02/18 03:39:56;;;;;;;;;;;;;;;10.27;100.00;101871.72;5028833;28;20051;-65
2023/02/18 03:42:26;;;;;;;;;;;;;;;10.33;100.00;101861.72;5026267;28;19951;-66
2023/02/18 03:44:52;;;;;;;;;;;;;;;10.25;100.00;101857.03;5027407;28;19979;-66
2023/02/18 03:47:19;;;;;;;;;;;;;;;10.27;100.00;101861.22;5027815;28;19929;-68
2023/02/18 03:49:45;;;;;;;;;;;;;;;10.28;100.00;101865.50;5022048;28;20010;-68
2023/02/18 03:52:11;;;;;;;;;;;;;;;10.27;100.00;101861.22;5025787;28;20353;-68
2023/02/18 03:54:38;;;;;;;;;;;;;;;10.27;100.00;101849.88;5030644;28;19927;-68
2023/02/18 03:57:04;;;;;;;;;;;;;;;10.24;100.00;101837.84;5033480;28;19936;-68
2023/02/18 03:59:30;;;;;;;;;;;;;;;10.26;100.00;101832.50;5029239;28;20289;-65
2023/02/18 04:01:57;;;;;;;;;;;;;;;10.29;100.00;101819.16;5036948;28;20601;-65
2023/02/18 04:04:23;;;;;;;;;;;;;;;10.25;100.00;101821.19;5016208;28;19924;-64
2023/02/18 04:06:50;;;;;;;;;;;;;;;10.24;100.00;101819.50;5029361;28;19932;-65
2023/02/18 04:09:16;;;;;;;;;;;;;;;10.27;100.00;101819.25;5036403;28;20019;-65
2023/02/18 04:11:42;;;;;;;;;;;;;;;10.30;100.00;101812.97;5043111;28;19924;-66
2023/02/18 04:14:09;;;;;;;;;;;;;;;10.33;100.00;101804.03;5032441;28;19988;-65
2023/02/18 04:16:35;;;;;;;;;;;;;;;10.33;100.00;101804.03;5028157;28;19932;-65
2023/02/18 04:19:01;;;;;;;;;;;;;;;10.31;100.00;101798.91;5039758;28;19943;-65
2023/02/18 04:21:28;;;;;;;;;;;;;;;10.27;100.00;101789.56;5027059;28;19960;-65
2023/02/18 04:23:54;;;;;;;;;;;;;;;10.31;100.00;101793.66;5036811;28;20369;-66
2023/02/18 04:26:21;;;;;;;;;;;;;;;10.26;100.00;101795.78;5035490;28;19928;-66
2023/02/18 04:28:47;;;;;;;;;;;;;;;10.27;100.00;101786.94;5032313;28;19936;-67
2023/02/18 04:31:14;;;;;;;;;;;;;;;10.25;100.00;101792.34;5033983;28;20377;-65
2023/02/18 04:33:40;;;;;;;;;;;;;;;10.21;100.00;101790.91;5025459;28;19925;-66
2023/02/18 04:36:07;;;;;;;;;;;;;;;10.25;100.00;101797.56;5036027;28;20369;-64
2023/02/18 04:38:34;;;;;;;;;;;;;;;10.21;100.00;101795.28;5030064;28;19921;-67
2023/02/18 04:41:00;;;;;;;;;;;;;;;10.15;100.00;101790.53;5031795;28;20008;-65
2023/02/18 04:43:27;;;;;;;;;;;;;;;10.10;100.00;101789.09;5031921;28;20460;-64
2023/02/18 04:45:53;;;;;;;;;;;;;;;10.14;100.00;101781.84;5020280;28;19921;-65
2023/02/18 04:48:19;;;;;;;;;;;;;;;10.14;100.00;101783.63;5029746;28;20382;-66
2023/02/18 04:50:46;;;;;;;;;;;;;;;10.14;100.00;101770.53;5043795;28;19949;-65
2023/02/18 04:53:13;;;;;;;;;;;;;;;10.15;100.00;101769.56;5047292;28;19925;-65
2023/02/18 04:55:39;;;;;;;;;;;;;;;10.14;100.00;101771.34;5030668;28;19925;-65
2023/02/18 04:58:05;;;;;;;;;;;;;;;10.13;100.00;101772.28;5035416;28;19928;-65
2023/02/18 05:00:32;;;;;;;;;;;;;;;10.15;100.00;101762.53;5037424;28;19936;-65
2023/02/18 05:02:58;;;;;;;;;;;;;;;10.16;100.00;101756.34;5026903;28;19921;-65
2023/02/18 05:05:24;;;;;;;;;;;;;;;10.14;100.00;101755.63;5045571;28;19925;-65
2023/02/18 05:07:50;;;;;;;;;;;;;;;10.16;100.00;101748.47;5026438;28;19987;-64
2023/02/18 05:10:17;;;;;;;;;;;;;;;10.19;100.00;101748.25;5029533;28;20424;-66
2023/02/18 05:12:43;;;;;;;;;;;;;;;10.20;100.00;101735.97;5033540;28;19927;-65
2023/02/18 05:15:09;;;;;;;;;;;;;;;10.16;100.00;101737.97;5060933;28;20460;-65
2023/02/18 05:17:36;;;;;;;;;;;;;;;10.12;100.00;101728.69;5047427;28;19931;-65
2023/02/18 05:20:02;;;;;;;;;;;;;;;10.13;100.00;101717.25;5030879;28;19930;-65
2023/02/18 05:22:29;;;;;;;;;;;;;;;10.10;100.00;101727.97;5016992;28;19947;-67
2023/02/18 05:24:55;;;;;;;;;;;;;;;10.09;100.00;101716.69;5034649;28;19946;-66
2023/02/18 05:27:21;;;;;;;;;;;;;;;10.14;100.00;101728.59;5041527;28;19970;-66
2023/02/18 05:29:48;;;;;;;;;;;;;;;10.17;100.00;101718.66;5028815;28;20362;-65
2023/02/18 05:32:14;;;;;;;;;;;;;;;10.17;100.00;101725.69;5039009;28;19920;-65
2023/02/18 05:34:40;;;;;;;;;;;;;;;10.18;100.00;101722.13;5033892;28;19925;-65
2023/02/18 05:37:06;;;;;;;;;;;;;;;10.22;100.00;101729.63;5032716;28;20509;-65
2023/02/18 05:39:33;;;;;;;;;;;;;;;10.20;100.00;101721.06;5033784;28;20510;-65
2023/02/18 05:41:59;;;;;;;;;;;;;;;10.16;100.00;101724.06;5029499;28;19931;-66
2023/02/18 05:44:29;;;;;;;;;;;;;;;10.14;100.00;101712.84;5044971;28;19925;-65
2023/02/18 05:46:56;;;;;;;;;;;;;;;10.12;100.00;101714.75;5024720;28;19931;-65
2023/02/18 05:49:23;;;;;;;;;;;;;;;10.30;100.00;101713.31;5032178;28;19960;-66
2023/02/18 05:51:49;;;;;;;;;;;;;;;10.28;100.00;101716.03;5031314;28;19924;-65
2023/02/18 05:54:15;;;;;;;;;;;;;;;10.26;100.00;101712.69;5020305;28;19932;-65
2023/02/18 05:56:42;;;;;;;;;;;;;;;10.30;100.00;101705.44;5039837;28;20237;-65
2023/02/18 05:59:08;;;;;;;;;;;;;;;10.22;100.00;101721.75;5030717;28;19921;-66
2023/02/18 06:01:34;;;;;;;;;;;;;;;10.23;100.00;101705.09;5041341;28;19921;-65
2023/02/18 06:04:01;;;;;;;;;;;;;;;10.27;100.00;101705.66;5033575;28;19955;-65
2023/02/18 06:06:27;;;;;;;;;;;;;;;10.22;100.00;101703.41;5022486;28;19987;-65
2023/02/18 06:08:53;;;;;;;;;;;;;;;10.15;100.00;101701.38;5034205;28;19929;-65
2023/02/18 06:11:20;;;;;;;;;;;;;;;10.13;100.00;101701.50;5025850;28;19931;-66
2023/02/18 06:13:46;;;;;;;;;;;;;;;10.06;100.00;101692.50;5038156;28;19925;-65
2023/02/18 06:16:12;;;;;;;;;;;;;;;10.02;100.00;101696.31;5036464;28;19974;-65
2023/02/18 06:18:39;;;;;;;;;;;;;;;10.06;100.00;101692.50;5041207;28;19928;-65
2023/02/18 06:21:06;;;;;;;;;;;;;;;10.03;100.00;101696.16;5032027;28;19936;-67
2023/02/18 06:23:32;;;;;;;;;;;;;;;10.03;100.00;101688.28;5032938;28;19924;-66
2023/02/18 06:25:58;;;;;;;;;;;;;;;10.04;100.00;101689.97;5034666;28;20275;-65
2023/02/18 06:28:25;;;;;;;;;;;;;;;10.08;100.00;101695.81;5030791;28;20717;-65
2023/02/18 06:30:51;;;;;;;;;;;;;;;10.01;100.00;101703.31;5038140;28;20338;-67
2023/02/18 06:33:17;;;;;;;;;;;;;;;9.98;100.00;101702.75;5027100;28;19929;-66
2023/02/18 06:35:54;;;;;;;;;;;;;;;9.94;100.00;101696.06;5039471;28;19920;-65
2023/02/18 06:38:20;;;;;;;;;;;;;;;9.96;100.00;101707.25;5034321;28;20431;-65
2023/02/18 06:40:47;;;;;;;;;;;;;;;9.99;100.00;101689.50;5034836;28;19932;-66
2023/02/18 06:43:13;;;;;;;;;;;;;;;9.99;100.00;101702.59;5035113;28;19920;-66
2023/02/18 06:45:40;;;;;;;;;;;;;;;10.00;100.00;101703.47;5020545;28;19947;-66
2023/02/18 06:48:06;;;;;;;;;;;;;;;9.93;100.00;101703.09;5035119;28;19924;-66
2023/02/18 06:50:32;;;;;;;;;;;;;;;9.95;100.00;101708.22;5025035;28;19928;-67
2023/02/18 06:52:59;;;;;;;;;;;;;;;9.90;100.00;101712.03;5040028;28;19921;-65
2023/02/18 06:55:25;;;;;;;;;;;;;;;9.92;100.00;101711.06;5037958;28;19925;-65
2023/02/18 06:57:51;;;;;;;;;;;;;;;9.86;100.00;101713.22;5029260;28;19925;-67
2023/02/18 07:00:18;;;;;;;;;;;;;;;9.85;100.00;101719.41;5037569;28;19920;-66
2023/02/18 07:02:44;;;;;;;;;;;;;;;9.82;100.00;101714.44;5031568;28;19925;-65
2023/02/18 07:05:11;;;;;;;;;;;;;;;9.81;100.00;101725.03;5032746;28;19925;-67
2023/02/18 07:07:37;;;;;;;;;;;;;;;9.85;100.00;101708.94;5021425;28;20320;-66
2023/02/18 07:10:04;;;;;;;;;;;;;;;9.80;100.00;101718.09;5032469;28;19925;-66
2023/02/18 07:12:30;;;;;;;;;;;;;;;9.78;100.00;101717.38;5018464;28;19929;-66
2023/02/18 07:14:56;;;;;;;;;;;;;;;9.78;100.00;101714.75;5040441;28;20380;-66
2023/02/18 07:17:22;;;;;;;;;;;;;;;9.79;100.00;101721.69;5036514;28;19955;-67
2023/02/18 07:19:49;;;;;;;;;;;;;;;9.76;100.00;101714.91;5032162;28;19921;-66
2023/02/18 07:22:15;;;;;;;;;;;;;;;9.75;100.00;101713.22;5020392;28;20011;-66
2023/02/18 07:24:42;;;;;;;;;;;;;;;9.78;100.00;101702.53;5037637;28;19927;-65
2023/02/18 07:27:08;;;;;;;;;;;;;;;9.75;100.00;101708.00;5021750;28;19921;-65
2023/02/18 07:29:34;;;;;;;;;;;;;;;9.82;100.00;101709.19;5021953;28;20473;-66
2023/02/18 07:32:01;;;;;;;;;;;;;;;9.86;100.00;101717.66;5032989;28;20586;-68
2023/02/18 07:34:27;;;;;;;;;;;;;;;9.86;100.00;101715.84;5027587;28;19925;-66
2023/02/18 07:36:53;;;;;;;;;;;;;;;9.80;100.00;101708.47;5032529;28;20019;-66
2023/02/18 07:39:20;;;;;;;;;;;;;;;9.79;100.00;101712.03;5025142;28;20333;-66
2023/02/18 07:41:46;;;;;;;;;;;;;;;9.80;100.00;101712.84;5017618;28;19932;-66
2023/02/18 07:44:13;;;;;;;;;;;;;;;9.83;100.00;101702.97;5031369;28;19929;-65
2023/02/18 07:46:40;;;;;;;;;;;;;;;9.78;100.00;101702.53;5029127;28;19951;-66
2023/02/18 07:49:07;;;;;;;;;;;;;;;9.78;100.00;101709.53;5026021;28;19966;-65
2023/02/18 07:51:33;;;;;;;;;;;;;;;9.79;100.00;101714.66;5034945;28;19929;-68
2023/02/18 07:54:00;;;;;;;;;;;;;;;9.81;100.00;101709.31;5028860;28;19924;-66
2023/02/18 07:56:26;;;;;;;;;;;;;;;9.85;100.00;101710.72;5026846;28;20400;-66
2023/02/18 07:58:52;;;;;;;;;;;;;;;9.84;100.00;101719.53;5038841;28;19951;-67
2023/02/18 08:01:19;;;;;;;;;;;;;;;9.86;100.00;101700.13;5047741;28;19924;-67
2023/02/18 08:03:45;;;;;;;;;;;;;;;9.87;100.00;101719.31;5030708;28;19958;-66
2023/02/18 08:06:18;;;;;;;;;;;;;;;9.83;100.00;101705.59;5017041;28;20012;-67
2023/02/18 08:08:45;;;;;;;;;;;;;;;9.87;100.00;101703.56;5032356;28;19971;-66
2023/02/18 08:11:11;;;;;;;;;;;;;;;9.86;100.00;101691.44;5031235;28;20404;-65
2023/02/18 08:13:44;;;;;;;;;;;;;;;9.88;100.00;101702.63;5037972;28;20689;-66
2023/02/18 08:16:12;;;;;;;;;;;;;;;9.94;100.00;101712.63;5025197;28;19960;-67
2023/02/18 08:18:39;;;;;;;;;;;;;;;9.89;100.00;101710.34;5017886;28;19927;-66
2023/02/18 08:21:05;;;;;;;;;;;;;;;9.90;100.00;101711.22;5019962;28;19935;-67
2023/02/18 08:23:31;;;;;;;;;;;;;;;9.94;100.00;101712.63;5048423;28;20411;-67
2023/02/18 08:25:58;;;;;;;;;;;;;;;9.92;100.00;101701.44;5039243;28;19921;-66
2023/02/18 08:28:24;;;;;;;;;;;;;;;9.89;100.00;101749.66;5026807;28;19925;-67
2023/02/18 08:30:52;;;;;;;;;;;;;;;9.90;100.00;101708.59;5038746;28;19967;-66
2023/02/18 08:33:19;;;;;;;;;;;;;;;9.87;100.00;101719.31;5031904;28;19961;-67
2023/02/18 08:35:46;;;;;;;;;;;;;;;9.86;100.00;101731.56;5036623;28;19924;-67
2023/02/18 08:38:12;;;;;;;;;;;;;;;9.88;100.00;101716.56;5030181;28;19925;-67
2023/02/18 08:40:39;;;;;;;;;;;;;;;9.85;100.00;101719.41;5045371;28;19920;-66
2023/02/18 08:43:06;;;;;;;;;;;;;;;9.80;100.00;101713.72;5036779;28;19933;-66
2023/02/18 08:45:32;;;;;;;;;;;;;;;9.78;100.00;101727.88;5042657;28;19925;-67
2023/02/18 08:48:01;;;;;;;;;;;;;;;9.72;100.00;101717.88;5039451;28;19943;-65
2023/02/18 08:50:45;;;;;;;;;;;;;;;9.77;100.00;101708.69;5026461;28;19921;-66
2023/02/18 08:53:11;;;;;;;;;;;;;;;9.77;100.00;101734.06;5042132;28;20397;-66
2023/02/18 08:55:38;;;;;;;;;;;;;;;9.78;100.00;101725.25;5027516;28;19994;-66
2023/02/18 08:58:05;;;;;;;;;;;;;;;9.77;100.00;101726.22;5032117;28;19927;-67
2023/02/18 09:00:32;;;;;;;;;;;;;;;9.75;100.00;101725.50;5043781;28;20449;-67
2023/02/18 09:02:58;;;;;;;;;;;;;;;9.77;100.00;101729.66;5030168;28;19921;-67
2023/02/18 09:05:24;;;;;;;;;;;;;;;9.74;100.00;101729.91;5036101;28;20424;-66
2023/02/18 09:07:51;;;;;;;;;;;;;;;9.67;100.00;101731.31;5030389;28;20630;-66
2023/02/18 09:10:17;;;;;;;;;;;;;;;9.59;100.00;101744.19;5029614;28;19932;-66
2023/02/18 09:12:43;;;;;;;;;;;;;;;9.50;100.00;101737.84;5032836;28;19925;-66
2023/02/18 09:15:10;;;;;;;;;;;;;;;9.43;100.00;101732.25;5030659;28;19925;-66
2023/02/18 09:17:36;;;;;;;;;;;;;;;9.45;100.00;101730.34;5023984;28;19925;-66
2023/02/18 09:20:03;;;;;;;;;;;;;;;9.37;100.00;101734.50;5027909;28;19931;-66
2023/02/18 09:22:31;;;;;;;;;;;;;;;9.33;100.00;101726.06;5032448;28;19921;-66
2023/02/18 09:24:57;;;;;;;;;;;;;;;9.32;100.00;101732.22;5022282;28;19931;-65
2023/02/18 09:27:24;;;;;;;;;;;;;;;9.33;100.00;101733.91;5028327;28;19924;-66
2023/02/18 09:29:50;;;;;;;;;;;;;;;9.25;100.00;101734.50;5019775;28;19925;-66
2023/02/18 09:32:17;;;;;;;;;;;;;;;9.25;100.00;101733.63;5034102;28;19925;-66
2023/02/18 09:34:59;;;;;;;;;;;;;;;9.25;100.00;101736.25;5032782;28;19927;-67
2023/02/18 09:37:25;;;;;;;;;;;;;;;9.24;100.00;101738.03;5038758;28;19924;-66
2023/02/18 09:39:52;;;;;;;;;;;;;;;9.19;100.00;101734.09;5039414;28;19960;-66
2023/02/18 09:42:28;;;;;;;;;;;;;;;9.23;100.00;101741.63;5028931;28;20328;-65
2023/02/18 09:44:56;;;;;;;;;;;;;;;9.23;100.00;101735.53;5035612;28;19935;-65
2023/02/18 09:47:31;;;;;;;;;;;;;;;9.22;100.00;101732.09;5035459;28;19935;-67
2023/02/18 09:50:02;;;;;;;;;;;;;;;9.27;100.00;101729.13;5039838;28;19935;-67
2023/02/18 09:52:30;;;;;;;;;;;;;;;9.33;100.00;101730.44;5030859;28;19931;-67
2023/02/18 09:54:57;;;;;;;;;;;;;;;9.33;100.00;101728.69;5035513;28;20016;-66
2023/02/18 09:57:29;;;;;;;;;;;;;;;9.33;100.00;101727.81;5042436;28;20387;-67
2023/02/18 10:00:00;;;;;;;;;;;;;;;9.33;100.00;101757.47;5017121;28;20013;-67
2023/02/18 10:02:27;;;;;;;;;;;;;;;9.39;100.00;101729.97;5041631;28;19925;-67
2023/02/18 10:04:54;;;;;;;;;;;;;;;9.37;100.00;101737.97;5024237;28;19929;-67
2023/02/18 10:07:23;;;;;;;;;;;;;;;9.39;100.00;101740.44;5045024;28;20458;-68
2023/02/18 10:09:55;;;;;;;;;;;;;;;9.45;100.00;101745.25;5032912;28;19925;-67
2023/02/18 10:12:22;;;;;;;;;;;;;;;9.47;100.00;101751.19;5034042;28;19922;-68
2023/02/18 10:14:56;;;;;;;;;;;;;;;9.46;100.00;101745.09;5043824;28;19932;-67
2023/02/18 10:17:24;;;;;;;;;;;;;;;9.48;100.00;101769.38;5032071;28;19920;-66
2023/02/18 10:19:52;;;;;;;;;;;;;;;9.53;100.00;101761.19;5033938;28;20348;-66
2023/02/18 10:22:19;;;;;;;;;;;;;;;9.54;100.00;101765.47;5032934;28;20274;-67
2023/02/18 10:24:45;;;;;;;;;;;;;;;9.55;100.00;101761.09;5029052;28;20478;-67
2023/02/18 10:27:17;;;;;;;;;;;;;;;9.55;100.00;101774.19;5015826;28;19932;-66
2023/02/18 10:29:43;;;;;;;;;;;;;;;9.45;100.00;101777.50;5032091;28;19974;-67
2023/02/18 10:32:15;;;;;;;;;;;;;;;9.44;100.00;101774.97;5039109;28;20302;-68
2023/02/18 10:34:44;;;;;;;;;;;;;;;9.36;100.00;101782.59;5030007;28;19931;-67
2023/02/18 10:37:20;;;;;;;;;;;;;;;9.39;100.00;101785.81;5030197;28;20812;-67
2023/02/18 10:39:58;;;;;;;;;;;;;;;9.39;100.00;101779.72;5034344;28;19921;-67
2023/02/18 10:42:37;;;;;;;;;;;;;;;9.40;100.00;101771.75;5025634;28;19925;-67
2023/02/18 10:45:15;;;;;;;;;;;;;;;9.33;100.00;101770.56;5037096;28;19932;-66
2023/02/18 10:47:46;;;;;;;;;;;;;;;9.32;100.00;101771.50;5028481;28;19924;-67
2023/02/18 10:50:22;;;;;;;;;;;;;;;9.35;100.00;101783.53;5024268;28;19920;-66
2023/02/18 10:52:51;;;;;;;;;;;;;;;9.40;100.00;101786.63;5036463;28;19921;-67
2023/02/18 10:55:17;;;;;;;;;;;;;;;9.40;100.00;101782.22;5014896;28;20304;-68
2023/02/18 10:57:48;;;;;;;;;;;;;;;9.36;100.00;101791.28;5032831;28;19924;-66
2023/02/18 11:00:17;;;;;;;;;;;;;;;9.36;100.00;101787.81;5035788;28;20401;-66
2023/02/18 11:02:44;;;;;;;;;;;;;;;9.36;100.00;101785.22;5033867;28;19983;-66
2023/02/18 11:05:24;;;;;;;;;;;;;;;9.42;100.00;101796.03;5041455;28;19924;-67
2023/02/18 11:07:53;;;;;;;;;;;;;;;9.43;100.00;101789.88;5020228;28;19921;-66
2023/02/18 11:10:24;;;;;;;;;;;;;;;9.42;100.00;101782.94;5024609;28;20645;-66
2023/02/18 11:13:00;;;;;;;;;;;;;;;9.46;100.00;101786.19;5015845;28;19921;-67
2023/02/18 11:15:27;;;;;;;;;;;;;;;9.48;100.00;101785.09;5044804;28;19924;-66
2023/02/18 11:17:55;;;;;;;;;;;;;;;9.54;100.00;101782.97;5033914;28;20341;-67
2023/02/18 11:20:29;;;;;;;;;;;;;;;9.60;100.00;101779.91;5029960;28;19963;-69
2023/02/18 11:22:57;;;;;;;;;;;;;;;9.64;100.00;101792.66;5034127;28;20396;-66
2023/02/18 11:25:25;;;;;;;;;;;;;;;9.72;100.00;101785.97;5026961;28;20578;-65
2023/02/18 11:27:54;;;;;;;;;;;;;;;9.73;100.00;101783.25;5046900;28;20436;-67
2023/02/18 11:30:22;;;;;;;;;;;;;;;9.74;100.00;101777.06;5033561;28;19921;-66
2023/02/18 11:32:51;;;;;;;;;;;;;;;9.78;100.00;101780.28;5036467;28;20097;-68
2023/02/18 11:35:18;;;;;;;;;;;;;;;9.83;100.00;101772.91;5020724;28;19921;-65
2023/02/18 11:37:45;;;;;;;;;;;;;;;9.86;100.00;101755.16;5032220;28;19932;-65
2023/02/18 11:40:22;;;;;;;;;;;;;;;9.88;100.00;101770.78;5050249;28;19924;-65
2023/02/18 11:43:01;;;;;;;;;;;;;;;9.90;100.00;101774.94;5023132;28;19927;-66
2023/02/18 11:45:29;;;;;;;;;;;;;;;9.96;100.00;101775.38;5037917;28;19935;-66
2023/02/18 11:48:19;;;;;;;;;;;;;;;10.00;100.00;101771.59;5025462;28;19932;-67
2023/02/18 11:50:52;;;;;;;;;;;;;;;9.98;100.00;101761.22;5029974;28;20412;-66
2023/02/18 11:53:30;;;;;;;;;;;;;;;10.09;100.00;101753.38;5020924;28;20108;-66
2023/02/18 11:56:01;;;;;;;;;;;;;;;10.15;100.00;101759.91;5039597;28;20058;-66
2023/02/18 11:58:31;;;;;;;;;;;;;;;10.17;100.00;101767.66;5021197;28;20435;-67
2023/02/18 12:01:01;;;;;;;;;;;;;;;10.18;100.00;101775.41;5031525;28;19921;-66
2023/02/18 12:03:31;;;;;;;;;;;;;;;10.24;100.00;101774.91;5022848;28;19962;-65
2023/02/18 12:06:02;;;;;;;;;;;;;;;10.26;100.00;101767.75;5022949;28;19928;-65
2023/02/18 12:08:31;;;;;;;;;;;;;;;10.23;100.00;101769.78;5033237;28;20396;-65
2023/02/18 12:11:14;;;;;;;;;;;;;;;10.23;100.00;101762.78;5024155;28;19925;-68
2023/02/18 12:13:58;;;;;;;;;;;;;;;10.24;100.00;101772.28;5028374;28;20388;-66
2023/02/18 12:16:27;;;;;;;;;;;;;;;10.29;100.00;101757.03;5025428;28;20506;-66
2023/02/18 12:18:54;;;;;;;;;;;;;;;10.27;100.00;101765.97;5034639;28;20340;-67
2023/02/18 12:21:50;;;;;;;;;;;;;;;10.28;100.00;101770.25;5031158;28;19921;-67
2023/02/18 12:24:34;;;;;;;;;;;;;;;10.31;100.00;101766.59;5010412;28;20650;-67
2023/02/18 12:27:19;;;;;;;;;;;;;;;10.33;100.00;101780.41;5023360;28;20283;-66
2023/02/18 12:29:52;;;;;;;;;;;;;;;10.28;100.00;101770.25;5031305;28;20393;-67
2023/02/18 12:32:43;;;;;;;;;;;;;;;10.23;100.00;101762.78;5032538;28;19947;-67
2023/02/18 12:35:27;;;;;;;;;;;;;;;10.25;100.00;101767.88;5032156;28;19925;-66
2023/02/18 12:38:12;;;;;;;;;;;;;;;10.18;100.00;101772.78;5034249;28;19925;-68